Time;durP1;ratioP1;P1;durP2;ratioP2;P2;SDS_P1;SDS_P2;PMS_P1;PMS_P2;Temp;Humidity;BMP_temperature;BMP_pressure;BME280_temperature;BME280_humidity;BME280_pressure;Samples;Min_cycle;Max_cycle;Signal;HPM_P1;HPM_P2
2023/10/11 00:02:57;;;;;;;25.83;11.77;;;14.60;100.00;;;;;;4988733;28;20046;-69
2023/10/11 00:05:39;;;;;;;26.17;12.50;;;14.60;100.00;;;;;;4972089;28;20054;-69
2023/10/11 00:08:08;;;;;;;26.90;11.10;;;14.60;100.00;;;;;;4987645;28;20502;-69
2023/10/11 00:10:42;;;;;;;28.25;12.65;;;14.50;100.00;;;;;;4987642;28;20564;-75
2023/10/11 00:13:17;;;;;;;28.10;13.07;;;14.50;100.00;;;;;;4987949;28;20203;-76
2023/10/11 00:15:49;;;;;;;26.70;12.50;;;14.60;100.00;;;;;;4993953;28;20084;-76
2023/10/11 00:18:22;;;;;;;28.25;12.73;;;14.50;100.00;;;;;;4969321;28;20100;-76
2023/10/11 00:20:51;;;;;;;31.23;11.75;;;14.50;100.00;;;;;;4990300;28;20057;-76
2023/10/11 00:23:23;;;;;;;34.03;13.65;;;14.50;100.00;;;;;;4971236;28;20046;-75
2023/10/11 00:25:53;;;;;;;25.20;11.43;;;14.50;100.00;;;;;;4972773;28;20046;-75
2023/10/11 00:28:26;;;;;;;26.17;11.35;;;14.50;100.00;;;;;;4986524;28;20058;-75
2023/10/11 00:30:55;;;;;;;20.45;9.68;;;14.50;100.00;;;;;;4979985;28;20046;-76
2023/10/11 00:33:24;;;;;;;28.83;12.02;;;14.50;100.00;;;;;;4989602;28;20719;-75
2023/10/11 00:36:04;;;;;;;28.58;11.18;;;14.50;100.00;;;;;;4988642;28;20058;-76
2023/10/11 00:38:42;;;;;;;25.23;10.48;;;14.50;100.00;;;;;;4977791;28;20109;-76
2023/10/11 00:41:17;;;;;;;23.92;10.63;;;14.50;100.00;;;;;;4984578;28;20045;-75
2023/10/11 00:43:52;;;;;;;25.20;11.32;;;14.50;100.00;;;;;;4988983;28;20058;-76
2023/10/11 00:49:35;;;;;;;25.92;10.75;;;14.50;100.00;;;;;;4977865;28;20046;-69
2023/10/11 00:52:06;;;;;;;22.67;10.80;;;14.50;100.00;;;;;;4987443;28;20065;-69
2023/10/11 00:54:37;;;;;;;25.50;10.35;;;14.50;100.00;;;;;;4983930;28;20096;-69
2023/10/11 00:57:05;;;;;;;23.98;10.32;;;14.40;100.00;;;;;;4975182;28;20089;-70
2023/10/11 00:59:32;;;;;;;23.27;10.82;;;14.40;100.00;;;;;;4986991;28;20138;-69
2023/10/11 01:01:59;;;;;;;23.13;9.63;;;14.40;100.00;;;;;;4982582;28;20061;-69
2023/10/11 01:04:33;;;;;;;32.22;10.10;;;14.40;100.00;;;;;;4969844;28;20169;-69
2023/10/11 01:07:01;;;;;;;20.63;9.70;;;14.40;100.00;;;;;;4987018;28;20057;-69
2023/10/11 01:09:29;;;;;;;22.20;9.05;;;14.40;100.00;;;;;;4987503;28;20136;-69
2023/10/11 01:11:55;;;;;;;19.20;8.60;;;14.40;100.00;;;;;;4969031;28;20109;-69
2023/10/11 01:14:25;;;;;;;22.05;9.20;;;14.40;100.00;;;;;;4988197;28;20655;-70
2023/10/11 01:16:52;;;;;;;25.90;10.27;;;14.40;100.00;;;;;;4978204;28;20128;-69
2023/10/11 01:19:21;;;;;;;21.35;8.85;;;14.40;100.00;;;;;;4970130;28;20502;-70
2023/10/11 01:21:54;;;;;;;26.85;8.68;;;14.40;100.00;;;;;;4971951;28;20050;-69
2023/10/11 01:24:21;;;;;;;17.83;9.10;;;14.40;100.00;;;;;;4984470;28;20057;-69
2023/10/11 01:26:48;;;;;;;20.80;8.63;;;14.30;100.00;;;;;;4967977;28;20100;-69
2023/10/11 01:29:16;;;;;;;22.98;8.88;;;14.30;100.00;;;;;;4986284;28;20118;-69
2023/10/11 01:31:43;;;;;;;24.73;9.20;;;14.30;100.00;;;;;;4986307;28;20133;-69
2023/10/11 01:34:14;;;;;;;19.70;9.15;;;14.30;100.00;;;;;;4986565;28;20089;-75
2023/10/11 01:36:44;;;;;;;27.05;9.25;;;14.40;100.00;;;;;;4986290;28;20137;-76
2023/10/11 01:39:12;;;;;;;21.42;9.27;;;14.40;100.00;;;;;;4987168;28;20159;-75
2023/10/11 01:41:42;;;;;;;19.83;8.25;;;14.40;100.00;;;;;;4986098;28;20047;-75
2023/10/11 01:44:10;;;;;;;23.25;8.13;;;14.40;100.00;;;;;;4973661;28;20108;-76
2023/10/11 01:46:39;;;;;;;20.50;8.38;;;14.40;100.00;;;;;;4987179;28;20053;-76
2023/10/11 01:49:07;;;;;;;20.27;7.40;;;14.40;100.00;;;;;;4984776;28;20146;-76
2023/10/11 01:51:46;;;;;;;15.85;7.88;;;14.40;99.90;;;;;;4986424;28;20054;-69
2023/10/11 01:54:22;;;;;;;20.35;8.77;;;14.40;99.80;;;;;;4969351;28;20058;-75
2023/10/11 01:56:52;;;;;;;19.00;7.70;;;14.50;99.70;;;;;;4988661;28;20119;-75
2023/10/11 01:59:19;;;;;;;24.35;9.00;;;14.50;99.70;;;;;;4987976;28;20526;-69
2023/10/11 02:01:58;;;;;;;24.63;8.80;;;14.50;99.50;;;;;;4986959;28;20550;-69
2023/10/11 02:04:29;;;;;;;18.75;7.85;;;14.50;99.50;;;;;;4970681;28;20705;-70
2023/10/11 02:06:57;;;;;;;22.65;7.65;;;14.50;99.20;;;;;;4985719;28;20062;-69
2023/10/11 02:09:24;;;;;;;17.25;7.13;;;14.40;99.20;;;;;;4969391;28;20054;-70
2023/10/11 02:11:54;;;;;;;17.08;8.07;;;14.50;98.80;;;;;;4985484;28;20053;-69
2023/10/11 02:14:23;;;;;;;18.90;7.35;;;14.50;98.40;;;;;;4985982;28;20139;-69
2023/10/11 02:16:53;;;;;;;19.40;6.80;;;14.50;98.60;;;;;;4985375;28;20050;-70
2023/10/11 02:19:23;;;;;;;54.10;8.82;;;14.60;98.30;;;;;;4988588;28;20712;-76
2023/10/11 02:21:55;;;;;;;16.58;7.68;;;14.50;98.00;;;;;;4974237;28;20046;-69
2023/10/11 02:24:27;;;;;;;16.58;6.68;;;14.50;98.00;;;;;;4969834;28;20606;-69
2023/10/11 02:26:56;;;;;;;14.52;6.68;;;14.60;97.90;;;;;;4972238;28;20444;-70
2023/10/11 02:29:25;;;;;;;17.17;7.28;;;14.60;97.90;;;;;;4991950;28;20155;-70
2023/10/11 02:31:54;;;;;;;19.65;6.93;;;14.60;97.60;;;;;;4985645;28;20495;-70
2023/10/11 02:34:22;;;;;;;19.42;6.82;;;14.60;97.60;;;;;;4971944;28;20393;-69
2023/10/11 02:36:56;;;;;;;16.98;6.68;;;14.70;97.10;;;;;;4968413;28;20050;-70
2023/10/11 02:39:34;;;;;;;21.60;7.22;;;14.70;96.80;;;;;;4985715;28;20506;-76
2023/10/11 02:42:05;;;;;;;14.27;6.68;;;14.70;96.90;;;;;;4968809;28;20055;-77
2023/10/11 02:44:32;;;;;;;12.98;6.60;;;14.70;96.70;;;;;;4969681;28;20046;-76
2023/10/11 02:46:59;;;;;;;22.05;6.53;;;14.80;96.20;;;;;;4994708;28;20058;-77
2023/10/11 02:49:31;;;;;;;15.73;6.60;;;14.80;95.70;;;;;;4987888;28;20065;-76
2023/10/11 02:52:08;;;;;;;18.48;5.88;;;14.90;95.50;;;;;;4987506;28;20046;-69
2023/10/11 02:54:39;;;;;;;17.02;6.72;;;14.90;95.20;;;;;;4984228;28;20055;-70
2023/10/11 02:57:27;;;;;;;13.35;6.15;;;14.90;95.10;;;;;;4983484;28;20104;-70
2023/10/11 02:59:56;;;;;;;18.67;6.63;;;14.90;94.80;;;;;;4981362;28;20092;-69
2023/10/11 03:02:29;;;;;;;21.98;6.88;;;15.00;94.10;;;;;;4983613;28;20050;-70
2023/10/11 03:04:59;;;;;;;23.15;6.88;;;15.10;94.10;;;;;;4972737;28;20531;-70
2023/10/11 03:07:27;;;;;;;18.50;5.88;;;15.00;94.00;;;;;;4966604;28;20058;-70
2023/10/11 03:09:54;;;;;;;16.60;5.88;;;15.00;94.30;;;;;;4984073;28;20046;-69
2023/10/11 03:12:32;;;;;;;14.10;5.68;;;15.00;94.50;;;;;;4983241;28;20069;-70
2023/10/11 03:15:08;;;;;;;12.95;6.28;;;14.90;94.70;;;;;;4982793;28;20057;-70
2023/10/11 03:17:41;;;;;;;17.95;6.25;;;14.90;94.40;;;;;;4981071;28;20054;-70
2023/10/11 03:20:32;;;;;;;17.40;6.63;;;14.90;94.30;;;;;;4981980;28;20042;-69
2023/10/11 03:23:03;;;;;;;20.52;5.70;;;14.90;94.30;;;;;;4970986;28;20117;-70
2023/10/11 03:25:31;;;;;;;19.60;6.47;;;14.90;94.60;;;;;;4965210;28;20683;-70
2023/10/11 03:27:58;;;;;;;16.42;6.93;;;14.90;94.20;;;;;;4972238;28;20049;-70
2023/10/11 03:30:25;;;;;;;13.30;5.70;;;14.90;94.40;;;;;;4984240;28;20643;-69
2023/10/11 03:32:52;;;;;;;19.98;7.07;;;14.90;94.30;;;;;;4983395;28;20078;-69
2023/10/11 03:35:25;;;;;;;14.98;7.30;;;14.90;94.10;;;;;;4982162;28;20120;-77
2023/10/11 03:37:58;;;;;;;14.32;6.15;;;14.90;94.20;;;;;;4967643;28;20077;-70
2023/10/11 03:40:54;;;;;;;13.98;6.40;;;14.90;94.20;;;;;;4983036;28;20054;-76
2023/10/11 03:43:26;;;;;;;14.50;6.35;;;14.90;94.30;;;;;;4965443;28;20105;-76
2023/10/11 03:45:59;;;;;;;15.18;6.65;;;14.90;94.30;;;;;;4982162;28;20116;-76
2023/10/11 03:48:28;;;;;;;15.10;6.22;;;14.80;94.60;;;;;;4984619;28;20062;-76
2023/10/11 03:50:56;;;;;;;20.48;5.88;;;14.80;94.40;;;;;;4981189;28;20562;-76
2023/10/11 03:53:23;;;;;;;14.00;5.60;;;14.90;94.00;;;;;;4982769;28;20070;-70
2023/10/11 03:55:53;;;;;;;15.50;5.88;;;14.90;94.00;;;;;;4983039;28;20057;-70
2023/10/11 04:01:23;;;;;;;14.30;5.65;;;14.90;93.70;;;;;;4982549;28;20530;-69
2023/10/11 04:03:51;;;;;;;14.25;6.15;;;15.00;94.00;;;;;;4977183;28;20116;-70
2023/10/11 04:06:22;;;;;;;23.42;6.20;;;15.00;93.70;;;;;;4969416;28;20129;-70
2023/10/11 04:08:57;;;;;;;13.60;5.63;;;15.00;93.80;;;;;;4985549;28;20046;-70
2023/10/11 04:14:17;;;;;;;19.27;6.00;;;15.10;93.10;;;;;;4987303;28;20057;-70
2023/10/11 04:16:44;;;;;;;15.88;6.75;;;15.00;93.50;;;;;;4987709;28;20160;-70
2023/10/11 04:19:12;;;;;;;16.98;6.05;;;15.00;93.50;;;;;;4985936;28;20134;-70
2023/10/11 04:21:54;;;;;;;20.58;7.00;;;15.00;93.40;;;;;;4970475;28;20073;-70
2023/10/11 04:24:21;;;;;;;18.17;5.90;;;15.00;93.70;;;;;;4985578;28;20085;-70
2023/10/11 04:27:45;;;;;;;17.60;7.00;;;15.00;93.70;;;;;;4986542;28;20053;-70
2023/10/11 04:29:38;;;;;;;14.20;6.25;;;15.00;94.00;;;;;;4978353;28;20054;-70
2023/10/11 04:32:19;;;;;;;16.23;6.07;;;15.00;94.30;;;;;;4982797;28;20054;-76
2023/10/11 04:34:55;;;;;;;14.57;6.20;;;14.90;94.20;;;;;;4972512;28;20054;-69
2023/10/11 04:37:30;;;;;;;15.27;6.57;;;15.00;93.80;;;;;;4964817;28;20065;-69
2023/10/11 04:40:15;;;;;;;15.05;6.45;;;15.00;94.10;;;;;;4987520;28;20519;-69
2023/10/11 04:43:04;;;;;;;21.60;6.82;;;15.00;94.00;;;;;;4969209;28;20061;-69
2023/10/11 04:45:46;;;;;;;14.77;6.80;;;14.90;94.20;;;;;;4971196;28;20050;-69
2023/10/11 04:48:29;;;;;;;12.70;6.10;;;15.00;93.90;;;;;;4967825;28;20649;-70
2023/10/11 04:51:21;;;;;;;12.65;6.18;;;14.90;94.40;;;;;;4985550;28;20493;-69
2023/10/11 04:54:13;;;;;;;16.75;6.22;;;15.00;94.00;;;;;;4986164;28;20054;-70
2023/10/11 05:02:02;;;;;;;17.48;7.50;;;15.00;94.00;;;;;;4981221;28;20171;-76
2023/10/11 05:04:33;;;;;;;29.75;6.95;;;15.00;93.80;;;;;;4986341;28;20054;-76
2023/10/11 05:07:07;;;;;;;15.27;7.07;;;15.00;93.90;;;;;;4987269;28;20065;-70
2023/10/11 05:09:40;;;;;;;17.13;7.05;;;14.90;93.90;;;;;;4986337;28;20089;-69
2023/10/11 05:12:12;;;;;;;17.98;6.55;;;15.00;93.90;;;;;;4972707;28;20061;-75
2023/10/11 05:15:07;;;;;;;17.38;7.20;;;14.90;93.90;;;;;;4982102;28;20046;-75
2023/10/11 05:22:49;;;;;;;21.58;7.20;;;14.90;94.50;;;;;;4987185;28;20062;-71
2023/10/11 05:27:56;;;;;;;14.88;6.18;;;14.90;94.00;;;;;;4987680;28;20123;-76
2023/10/11 05:33:15;;;;;;;16.42;6.43;;;14.90;94.60;;;;;;4984864;28;20050;-75
2023/10/11 05:52:17;;;;;;;16.90;6.88;;;14.80;95.10;;;;;;4986453;28;20058;-70
2023/10/11 05:54:45;;;;;;;18.40;7.00;;;14.80;95.00;;;;;;4985063;28;20046;-69
2023/10/11 05:57:13;;;;;;;19.45;6.72;;;14.80;95.60;;;;;;4985899;28;20054;-74
2023/10/11 05:59:47;;;;;;;24.25;7.40;;;14.80;95.60;;;;;;4967599;28;20058;-70
2023/10/11 06:02:18;;;;;;;15.43;7.25;;;14.80;95.70;;;;;;4984925;28;20046;-75
2023/10/11 06:04:46;;;;;;;17.50;7.25;;;14.80;95.90;;;;;;4990716;28;20450;-75
2023/10/11 06:07:15;;;;;;;22.08;7.50;;;14.80;95.70;;;;;;4990942;28;20391;-74
2023/10/11 06:09:43;;;;;;;18.30;7.15;;;14.80;95.80;;;;;;4969380;28;20046;-69
2023/10/11 06:12:23;;;;;;;18.05;6.47;;;14.80;95.70;;;;;;4984074;28;20129;-70
2023/10/11 06:14:55;;;;;;;24.60;7.55;;;14.80;95.90;;;;;;4992671;28;20061;-74
2023/10/11 06:17:49;;;;;;;24.27;7.72;;;14.80;96.20;;;;;;4982324;28;20054;-70
2023/10/11 06:20:26;;;;;;;;;;;;;;;;;;;;;
2023/10/11 06:22:52;;;;;;;12.25;5.90;;;14.80;96.40;;;;;;4992155;28;20050;-74
2023/10/11 06:25:41;;;;;;;14.45;6.40;;;14.90;96.20;;;;;;4988221;28;20058;-75
2023/10/11 06:28:13;;;;;;;21.63;7.13;;;14.90;95.80;;;;;;4983641;28;20046;-70
2023/10/11 06:30:47;;;;;;;18.73;6.68;;;14.90;95.50;;;;;;4992383;28;20130;-70
2023/10/11 06:33:14;;;;;;;23.52;7.38;;;14.90;95.30;;;;;;4968453;28;20066;-74
2023/10/11 06:35:45;;;;;;;13.15;6.65;;;14.90;95.80;;;;;;4987885;28;20140;-70
2023/10/11 06:38:12;;;;;;;24.77;7.65;;;14.90;95.70;;;;;;4984344;28;20050;-70
2023/10/11 06:40:46;;;;;;;21.45;7.10;;;14.90;95.90;;;;;;4975173;28;20038;-74
2023/10/11 06:43:14;;;;;;;25.40;7.32;;;15.00;96.00;;;;;;4987046;28;20092;-70
2023/10/11 06:45:42;;;;;;;14.35;6.53;;;15.00;95.80;;;;;;4975094;28;20104;-75
2023/10/11 06:48:13;;;;;;;26.02;6.72;;;15.00;96.20;;;;;;4971711;28;20049;-70
2023/10/11 06:50:40;;;;;;;18.77;7.25;;;15.00;96.00;;;;;;4985145;28;20057;-75
2023/10/11 06:53:10;;;;;;;17.63;6.72;;;15.00;95.70;;;;;;4987871;28;20069;-81
2023/10/11 06:55:39;;;;;;;21.45;7.90;;;15.10;95.30;;;;;;4962018;28;20459;-74
2023/10/11 06:58:15;;;;;;;14.60;6.68;;;15.10;95.40;;;;;;4968886;28;20054;-77
2023/10/11 07:00:48;;;;;;;20.42;7.43;;;15.20;95.70;;;;;;4976766;28;20652;-76
2023/10/11 07:05:59;;;;;;;22.23;6.90;;;15.30;95.10;;;;;;4982210;28;20852;-76
2023/10/11 07:08:34;;;;;;;19.67;6.95;;;15.30;94.80;;;;;;4989905;28;20042;-76
2023/10/11 07:11:10;;;;;;;18.98;6.55;;;15.40;93.80;;;;;;4992932;28;20062;-76
2023/10/11 07:13:51;;;;;;;16.38;6.65;;;15.50;93.90;;;;;;4967248;28;20125;-76
2023/10/11 07:16:19;;;;;;;24.02;7.38;;;15.60;93.30;;;;;;4987504;28;20062;-76
2023/10/11 07:18:48;;;;;;;17.67;6.93;;;15.60;93.30;;;;;;4988484;28;20073;-76
2023/10/11 07:21:19;;;;;;;15.63;5.90;;;15.70;93.70;;;;;;4974044;28;20384;-76
2023/10/11 07:26:47;;;;;;;18.52;6.95;;;15.70;92.90;;;;;;4985614;28;20057;-75
2023/10/11 07:29:12;;;;;;;18.60;6.43;;;15.80;92.50;;;;;;4987902;28;20051;-76
2023/10/11 07:31:48;;;;;;;19.88;6.55;;;15.80;92.30;;;;;;4981788;28;20054;-71
2023/10/11 07:34:22;;;;;;;17.40;6.25;;;15.90;91.90;;;;;;4983552;28;20058;-71
2023/10/11 07:36:49;;;;;;;14.43;6.25;;;16.00;93.10;;;;;;4976394;28;20051;-77
2023/10/11 07:39:19;;;;;;;;;;;;;;;;;;;;;
2023/10/11 07:41:48;;;;;;;14.27;5.95;;;16.10;90.40;;;;;;4987230;28;20158;-76
2023/10/11 07:44:19;;;;;;;19.60;6.55;;;16.10;91.90;;;;;;4987968;28;20047;-76
2023/10/11 07:46:47;;;;;;;21.58;7.05;;;16.20;90.50;;;;;;4993221;28;20050;-76
2023/10/11 07:49:16;;;;;;;12.30;5.22;;;16.40;91.40;;;;;;4991685;28;20045;-75
2023/10/11 07:51:44;;;;;;;20.15;5.78;;;16.50;90.50;;;;;;4977686;28;20423;-75
2023/10/11 07:54:19;;;;;;;16.88;7.13;;;16.70;90.90;;;;;;4991160;28;20141;-76
2023/10/11 07:56:53;;;;;;;16.02;5.97;;;16.70;88.70;;;;;;4988309;28;20078;-74
2023/10/11 07:59:26;;;;;;;14.85;6.00;;;16.80;88.30;;;;;;4991378;28;20152;-74
2023/10/11 08:01:59;;;;;;;14.38;6.63;;;16.80;88.10;;;;;;4972443;28;20073;-73
2023/10/11 08:04:29;;;;;;;17.95;6.00;;;16.80;88.20;;;;;;4987164;28;20054;-69
2023/10/11 08:06:59;;;;;;;23.90;6.43;;;16.90;89.20;;;;;;4973559;28;20054;-69
2023/10/11 08:09:28;;;;;;;14.63;6.07;;;16.90;88.30;;;;;;4988014;28;20046;-69
2023/10/11 08:11:59;;;;;;;15.30;6.40;;;17.00;88.20;;;;;;4989166;28;20050;-69
2023/10/11 08:14:29;;;;;;;21.83;6.20;;;16.90;88.30;;;;;;4990447;28;20148;-76
2023/10/11 08:16:56;;;;;;;16.27;6.10;;;17.00;88.50;;;;;;4990195;28;20054;-76
2023/10/11 08:19:23;;;;;;;18.40;5.65;;;17.10;87.60;;;;;;4990889;28;20081;-76
2023/10/11 08:21:57;;;;;;;13.02;5.90;;;17.10;87.40;;;;;;4984998;28;20077;-77
2023/10/11 08:24:25;;;;;;;15.93;6.25;;;17.20;86.90;;;;;;4974578;28;20910;-76
2023/10/11 08:27:05;;;;;;;18.60;6.72;;;17.20;86.50;;;;;;4994962;28;20052;-76
2023/10/11 08:29:33;;;;;;;13.98;5.93;;;17.30;87.00;;;;;;4971627;28;20046;-76
2023/10/11 08:32:01;;;;;;;14.85;6.25;;;17.30;87.20;;;;;;4990911;28;20058;-76
2023/10/11 08:34:28;;;;;;;14.82;6.07;;;17.20;86.10;;;;;;4990748;28;20054;-76
2023/10/11 08:36:56;;;;;;;22.67;6.22;;;17.30;87.40;;;;;;4992189;28;20487;-68
2023/10/11 08:39:36;;;;;;;16.88;6.45;;;17.30;86.70;;;;;;4971939;28;20137;-68
2023/10/11 08:42:08;;;;;;;15.55;6.28;;;17.30;86.00;;;;;;4988455;28;20046;-69
2023/10/11 08:44:35;;;;;;;15.52;6.25;;;17.30;87.00;;;;;;4988017;28;20558;-69
2023/10/11 08:47:06;;;;;;;17.85;6.50;;;17.30;86.30;;;;;;4987981;28;20164;-68
2023/10/11 08:49:41;;;;;;;19.35;7.07;;;17.30;86.80;;;;;;4987519;28;20101;-68
2023/10/11 08:52:11;;;;;;;21.33;6.45;;;17.30;87.00;;;;;;4987721;28;20141;-68
2023/10/11 08:54:40;;;;;;;20.25;6.35;;;17.30;86.00;;;;;;4984672;28;20824;-68
2023/10/11 08:57:07;;;;;;;14.45;6.72;;;17.30;87.30;;;;;;4966800;28;20055;-66
2023/10/11 08:59:48;;;;;;;22.23;6.05;;;17.40;86.30;;;;;;4970130;28;20046;-66
2023/10/11 09:02:17;;;;;;;13.00;6.28;;;17.50;86.60;;;;;;4977688;28;20053;-66
2023/10/11 09:08:26;;;;;;;12.85;5.93;;;17.60;86.40;;;;;;4981236;28;20297;-66
2023/10/11 09:11:11;;;;;;;15.52;6.95;;;17.70;86.80;;;;;;4989639;28;20043;-66
2023/10/11 09:13:39;;;;;;;13.13;5.85;;;17.70;85.10;;;;;;4965896;28;20046;-68
2023/10/11 09:16:13;;;;;;;17.40;6.60;;;17.80;85.80;;;;;;4989489;28;20129;-66
2023/10/11 09:18:46;;;;;;;18.17;6.55;;;17.90;84.90;;;;;;4982057;28;20046;-68
2023/10/11 09:21:17;;;;;;;14.88;6.50;;;18.00;84.80;;;;;;4987415;28;20461;-66
2023/10/11 09:23:49;;;;;;;20.30;7.15;;;18.10;85.10;;;;;;4976171;28;20054;-67
2023/10/11 09:26:32;;;;;;;17.95;6.00;;;18.20;84.90;;;;;;4994004;28;20054;-67
2023/10/11 09:29:16;;;;;;;20.90;6.53;;;18.30;83.30;;;;;;4987115;28;20120;-67
2023/10/11 09:31:58;;;;;;;15.70;6.05;;;18.30;84.00;;;;;;4979329;28;20156;-73
2023/10/11 09:34:32;;;;;;;15.55;6.32;;;18.30;82.60;;;;;;4969634;28;20050;-67
2023/10/11 09:37:00;;;;;;;52.38;10.25;;;18.30;84.90;;;;;;4987468;28;20064;-67
2023/10/11 09:39:29;;;;;;;53.63;10.25;;;18.40;84.70;;;;;;4963898;28;20049;-67
2023/10/11 09:42:04;;;;;;;13.95;5.95;;;18.40;82.90;;;;;;4985611;28;20047;-67
2023/10/11 09:44:40;;;;;;;23.73;7.30;;;18.30;83.20;;;;;;4987430;28;20874;-67
2023/10/11 09:47:16;;;;;;;23.35;6.95;;;18.30;84.20;;;;;;4984187;28;20053;-67
2023/10/11 09:49:46;;;;;;;15.90;6.13;;;18.30;84.10;;;;;;4967556;28;20054;-67
2023/10/11 09:52:18;;;;;;;22.88;6.78;;;18.40;84.90;;;;;;4967065;28;20142;-67
2023/10/11 09:54:50;;;;;;;16.35;6.38;;;18.70;83.70;;;;;;4985759;28;20827;-68
2023/10/11 09:57:38;;;;;;;17.70;6.85;;;18.90;82.10;;;;;;4967666;28;20069;-67
2023/10/11 10:00:41;;;;;;;44.65;8.38;;;19.00;82.40;;;;;;4986501;28;20615;-67
2023/10/11 10:03:13;;;;;;;73.93;9.50;;;19.00;81.60;;;;;;4979772;28;20062;-67
2023/10/11 10:06:18;;;;;;;14.93;5.78;;;18.90;81.00;;;;;;4984639;28;20052;-67
2023/10/11 10:12:06;;;;;;;80.57;7.80;;;18.70;82.40;;;;;;4985602;28;20134;-67
2023/10/11 10:14:41;;;;;;;27.60;6.05;;;18.70;83.30;;;;;;4984497;28;20057;-67
2023/10/11 10:17:11;;;;;;;19.77;6.07;;;18.80;83.70;;;;;;4987014;28;20046;-67
2023/10/11 10:19:43;;;;;;;17.42;6.18;;;19.10;81.40;;;;;;4985472;28;20141;-67
2023/10/11 10:22:17;;;;;;;15.93;5.78;;;19.10;82.00;;;;;;4986702;28;20046;-67
2023/10/11 10:24:50;;;;;;;31.05;5.90;;;19.20;81.60;;;;;;4994113;28;20050;-67
2023/10/11 10:27:23;;;;;;;11.80;5.70;;;19.20;82.00;;;;;;4983777;28;20650;-67
2023/10/11 10:29:55;;;;;;;17.92;6.95;;;19.20;81.80;;;;;;4987831;28;20042;-67
2023/10/11 10:32:23;;;;;;;19.67;6.10;;;19.30;82.10;;;;;;4967215;28;20160;-67
2023/10/11 10:35:19;;;;;;;15.90;6.15;;;19.40;81.80;;;;;;4943650;28;1166570;-67
2023/10/11 10:37:56;;;;;;;14.75;5.85;;;19.70;80.00;;;;;;4983321;28;20150;-68
2023/10/11 10:40:24;;;;;;;15.82;6.05;;;20.00;80.80;;;;;;4984204;28;20149;-68
2023/10/11 10:43:20;;;;;;;15.73;6.40;;;20.20;78.70;;;;;;4987441;28;20081;-70
2023/10/11 10:45:48;;;;;;;29.10;7.43;;;20.20;80.20;;;;;;4970898;28;20133;-70
2023/10/11 10:48:22;;;;;;;139.82;19.50;;;20.30;79.20;;;;;;4986376;28;20074;-77
2023/10/11 10:50:54;;;;;;;32.08;7.07;;;20.20;78.50;;;;;;4973804;28;20117;-76
2023/10/11 10:53:25;;;;;;;20.90;6.25;;;20.10;79.50;;;;;;4989251;28;20065;-77
2023/10/11 10:55:58;;;;;;;15.10;5.75;;;20.10;80.00;;;;;;4982197;28;20073;-77
2023/10/11 10:58:27;;;;;;;15.27;5.55;;;20.20;80.20;;;;;;4980678;28;20061;-69
2023/10/11 11:00:59;;;;;;;15.57;5.40;;;20.40;78.60;;;;;;4987388;28;20161;-76
2023/10/11 11:03:32;;;;;;;19.63;6.15;;;20.30;78.60;;;;;;4988943;28;20110;-77
2023/10/11 11:06:01;;;;;;;14.38;6.30;;;20.00;78.30;;;;;;4988726;28;20050;-70
2023/10/11 11:08:32;;;;;;;15.88;6.03;;;19.70;79.30;;;;;;4964092;28;20097;-76
2023/10/11 11:14:09;;;;;;;15.05;5.63;;;19.60;81.50;;;;;;4969279;28;20057;-77
2023/10/11 11:16:41;;;;;;;17.80;5.95;;;19.70;82.20;;;;;;4968457;28;20050;-77
2023/10/11 11:19:16;;;;;;;14.93;6.00;;;19.80;81.70;;;;;;4971169;28;20054;-76
2023/10/11 11:21:47;;;;;;;15.30;5.47;;;19.80;80.70;;;;;;4985159;28;20057;-77
2023/10/11 11:24:17;;;;;;;15.18;5.88;;;19.80;81.30;;;;;;4987632;28;20038;-77
2023/10/11 11:26:46;;;;;;;17.20;5.38;;;19.60;81.10;;;;;;4976586;28;20053;-77
2023/10/11 11:29:31;;;;;;;19.45;6.13;;;19.60;80.00;;;;;;4973738;28;20535;-77
2023/10/11 11:31:59;;;;;;;20.67;5.43;;;19.50;82.40;;;;;;4961702;28;20046;-69
2023/10/11 11:34:34;;;;;;;20.23;5.53;;;19.50;81.20;;;;;;4986072;28;20058;-77
2023/10/11 11:37:06;;;;;;;20.97;6.33;;;19.40;82.90;;;;;;4974526;28;20053;-70
2023/10/11 11:39:51;;;;;;;20.98;7.00;;;19.40;82.00;;;;;;4971131;28;20054;-77
2023/10/11 11:42:19;;;;;;;20.45;6.00;;;19.40;82.90;;;;;;4987491;28;20146;-78
2023/10/11 11:44:48;;;;;;;13.45;5.88;;;19.40;82.50;;;;;;4976218;28;20206;-70
2023/10/11 11:47:21;;;;;;;15.55;5.60;;;19.20;81.50;;;;;;4981737;28;20045;-70
2023/10/11 11:49:53;;;;;;;12.15;5.30;;;19.10;82.40;;;;;;4992309;28;20046;-77
2023/10/11 11:52:21;;;;;;;16.42;5.90;;;19.10;82.10;;;;;;4974628;28;20149;-78
2023/10/11 11:54:49;;;;;;;22.50;5.88;;;19.00;82.40;;;;;;4985297;28;20108;-77
2023/10/11 11:57:16;;;;;;;18.75;6.05;;;18.90;82.70;;;;;;4970609;28;20058;-78
2023/10/11 11:59:43;;;;;;;15.43;6.82;;;18.80;82.00;;;;;;4982552;28;20164;-77
2023/10/11 12:02:16;;;;;;;20.80;5.95;;;18.70;83.50;;;;;;4966114;28;20133;-77
2023/10/11 12:04:46;;;;;;;19.15;6.38;;;18.60;83.40;;;;;;4963155;28;20566;-77
2023/10/11 12:07:14;;;;;;;12.52;6.13;;;18.60;84.60;;;;;;4985068;28;20056;-77
2023/10/11 12:09:41;;;;;;;21.75;5.70;;;18.50;83.90;;;;;;4971998;28;20046;-77
2023/10/11 12:12:28;;;;;;;32.58;7.90;;;18.50;85.00;;;;;;4987954;28;20058;-69
2023/10/11 12:14:59;;;;;;;25.40;6.95;;;18.40;86.00;;;;;;4969444;28;20058;-70
2023/10/11 12:17:27;;;;;;;25.92;6.32;;;18.40;85.10;;;;;;4985525;28;20065;-69
2023/10/11 12:19:54;;;;;;;17.98;6.63;;;18.40;86.90;;;;;;4986096;28;20766;-77
2023/10/11 12:22:22;;;;;;;17.33;6.53;;;18.50;87.20;;;;;;4985232;28;20053;-77
2023/10/11 12:24:50;;;;;;;19.88;6.72;;;18.40;85.90;;;;;;4979321;28;20050;-70
2023/10/11 12:27:17;;;;;;;10.40;5.65;;;18.30;86.30;;;;;;4989534;28;20052;-70
2023/10/11 12:29:47;;;;;;;11.40;6.13;;;18.30;87.30;;;;;;4989387;28;20872;-70
2023/10/11 12:32:33;;;;;;;21.63;6.60;;;18.40;86.00;;;;;;4978222;28;20061;-76
2023/10/11 12:35:06;;;;;;;15.40;6.43;;;18.40;87.20;;;;;;4970286;28;20061;-77
2023/10/11 12:37:33;;;;;;;23.38;7.00;;;18.30;86.90;;;;;;4991056;28;20046;-77
2023/10/11 12:40:01;;;;;;;18.90;7.38;;;18.30;88.00;;;;;;4975321;28;20058;-77
2023/10/11 12:42:27;;;;;;;22.33;7.47;;;18.30;87.60;;;;;;4987440;28;20054;-77
2023/10/11 12:44:59;;;;;;;17.63;6.72;;;18.30;87.60;;;;;;4989014;28;20042;-77
2023/10/11 12:47:26;;;;;;;18.73;6.75;;;18.30;87.50;;;;;;4972698;28;20049;-76
2023/10/11 12:49:53;;;;;;;10.82;6.15;;;18.30;88.50;;;;;;4992511;28;20049;-70
2023/10/11 12:52:30;;;;;;;13.35;5.85;;;18.30;88.10;;;;;;4979881;28;20061;-77
2023/10/11 12:54:57;;;;;;;17.17;6.25;;;18.40;87.70;;;;;;4969559;28;20061;-70
2023/10/11 12:57:27;;;;;;;17.55;5.93;;;18.50;88.60;;;;;;4976453;28;20328;-72
2023/10/11 12:59:54;;;;;;;12.00;5.47;;;18.70;88.20;;;;;;4987077;28;20145;-70
2023/10/11 13:02:21;;;;;;;18.85;5.70;;;18.90;86.40;;;;;;4983609;28;20090;-70
2023/10/11 13:04:49;;;;;;;14.55;5.55;;;19.00;87.10;;;;;;4972288;28;20487;-70
2023/10/11 13:07:16;;;;;;;11.10;4.82;;;19.10;86.80;;;;;;4971256;28;20050;-70
2023/10/11 13:09:43;;;;;;;22.90;5.85;;;19.10;85.80;;;;;;4986683;28;20100;-70
2023/10/11 13:12:17;;;;;;;14.32;5.20;;;19.10;85.10;;;;;;4987027;28;20140;-70
2023/10/11 13:14:44;;;;;;;11.57;5.03;;;19.00;84.50;;;;;;4987105;28;20057;-70
2023/10/11 13:17:15;;;;;;;14.50;5.72;;;18.90;85.10;;;;;;4969392;28;20141;-70
2023/10/11 13:19:46;;;;;;;15.13;4.93;;;18.90;86.40;;;;;;4966479;28;20155;-71
2023/10/11 13:22:12;;;;;;;16.42;5.57;;;18.80;85.70;;;;;;4985324;28;20050;-69
2023/10/11 13:24:40;;;;;;;11.45;5.38;;;18.70;86.00;;;;;;4970373;28;20045;-69
2023/10/11 13:27:09;;;;;;;30.23;7.10;;;18.70;87.70;;;;;;4985034;28;20066;-69
2023/10/11 13:29:36;;;;;;;11.20;5.35;;;18.80;85.80;;;;;;4985395;28;20050;-69
2023/10/11 13:32:04;;;;;;;11.30;5.55;;;18.70;85.50;;;;;;4971138;28;20046;-73
2023/10/11 13:34:34;;;;;;;15.23;5.10;;;18.60;85.70;;;;;;4998185;28;20092;-75
2023/10/11 13:37:03;;;;;;;13.55;5.63;;;18.60;86.30;;;;;;4990802;28;20483;-70
2023/10/11 13:39:46;;;;;;;12.82;5.68;;;18.70;88.10;;;;;;4971995;28;20557;-75
2023/10/11 13:42:14;;;;;;;13.25;5.40;;;18.80;86.40;;;;;;4976828;28;20198;-74
2023/10/11 13:44:43;;;;;;;12.65;6.45;;;18.80;85.20;;;;;;4981098;28;20046;-70
2023/10/11 13:47:11;;;;;;;15.27;5.95;;;18.80;84.90;;;;;;4986310;28;20137;-69
2023/10/11 13:49:40;;;;;;;10.02;4.95;;;18.70;86.40;;;;;;4985824;28;20046;-69
2023/10/11 13:52:08;;;;;;;11.88;5.15;;;18.70;86.30;;;;;;4969787;28;20074;-70
2023/10/11 13:57:10;;;;;;;11.07;5.57;;;18.70;86.80;;;;;;4991686;28;20054;-70
2023/10/11 13:59:45;;;;;;;16.42;5.82;;;18.70;86.40;;;;;;4985220;28;20411;-70
2023/10/11 14:07:37;;;;;;;16.70;5.90;;;18.60;86.60;;;;;;4987963;28;20086;-74